sensor_id;sensor_type;location;lat;lon;timestamp;P1;durP1;ratioP1;P2;durP2;ratioP2
50976;SDS011;36992;48.200;12.418;2023-11-21T00:02:24;2.55;;;0.60;;
50976;SDS011;36992;48.200;12.418;2023-11-21T00:04:52;2.15;;;0.52;;
50976;SDS011;36992;48.200;12.418;2023-11-21T00:07:20;2.75;;;0.45;;
50976;SDS011;36992;48.200;12.418;2023-11-21T00:09:46;2.28;;;0.60;;
50976;SDS011;36992;48.200;12.418;2023-11-21T00:12:13;4.57;;;0.57;;
50976;SDS011;36992;48.200;12.418;2023-11-21T00:14:39;4.40;;;0.30;;
50976;SDS011;36992;48.200;12.418;2023-11-21T00:17:06;3.00;;;0.40;;
50976;SDS011;36992;48.200;12.418;2023-11-21T00:19:32;4.70;;;0.50;;
50976;SDS011;36992;48.200;12.418;2023-11-21T00:21:59;3.00;;;0.45;;
50976;SDS011;36992;48.200;12.418;2023-11-21T00:24:27;4.85;;;0.45;;
50976;SDS011;36992;48.200;12.418;2023-11-21T00:26:54;1.05;;;0.30;;
50976;SDS011;36992;48.200;12.418;2023-11-21T00:29:20;2.83;;;0.47;;
50976;SDS011;36992;48.200;12.418;2023-11-21T00:31:47;3.88;;;0.77;;
50976;SDS011;36992;48.200;12.418;2023-11-21T00:34:13;1.10;;;0.30;;
50976;SDS011;36992;48.200;12.418;2023-11-21T00:36:39;3.40;;;0.40;;
50976;SDS011;36992;48.200;12.418;2023-11-21T00:39:06;3.92;;;0.70;;
50976;SDS011;36992;48.200;12.418;2023-11-21T00:41:35;4.38;;;0.60;;
50976;SDS011;36992;48.200;12.418;2023-11-21T00:44:02;2.15;;;0.35;;
50976;SDS011;36992;48.200;12.418;2023-11-21T00:46:29;2.55;;;0.50;;
50976;SDS011;36992;48.200;12.418;2023-11-21T00:48:55;1.67;;;0.30;;
50976;SDS011;36992;48.200;12.418;2023-11-21T00:51:22;2.63;;;0.38;;
50976;SDS011;36992;48.200;12.418;2023-11-21T00:53:49;1.63;;;0.30;;
50976;SDS011;36992;48.200;12.418;2023-11-21T00:56:16;2.15;;;0.30;;
50976;SDS011;36992;48.200;12.418;2023-11-21T00:58:44;2.10;;;0.35;;
50976;SDS011;36992;48.200;12.418;2023-11-21T01:01:14;4.80;;;0.50;;
50976;SDS011;36992;48.200;12.418;2023-11-21T01:03:41;4.78;;;0.40;;
50976;SDS011;36992;48.200;12.418;2023-11-21T01:06:07;2.15;;;0.35;;
50976;SDS011;36992;48.200;12.418;2023-11-21T01:08:34;3.38;;;0.32;;
50976;SDS011;36992;48.200;12.418;2023-11-21T01:11:01;2.03;;;0.35;;
50976;SDS011;36992;48.200;12.418;2023-11-21T01:13:28;4.22;;;0.43;;
50976;SDS011;36992;48.200;12.418;2023-11-21T01:15:56;2.35;;;0.30;;
50976;SDS011;36992;48.200;12.418;2023-11-21T01:18:22;3.13;;;0.50;;
50976;SDS011;36992;48.200;12.418;2023-11-21T01:20:50;1.60;;;0.40;;
50976;SDS011;36992;48.200;12.418;2023-11-21T01:23:17;3.95;;;0.70;;
50976;SDS011;36992;48.200;12.418;2023-11-21T01:25:44;1.88;;;0.70;;
50976;SDS011;36992;48.200;12.418;2023-11-21T01:28:10;1.75;;;0.30;;
50976;SDS011;36992;48.200;12.418;2023-11-21T01:30:37;1.90;;;0.60;;
50976;SDS011;36992;48.200;12.418;2023-11-21T01:33:05;3.20;;;0.85;;
50976;SDS011;36992;48.200;12.418;2023-11-21T01:35:32;3.95;;;0.70;;
50976;SDS011;36992;48.200;12.418;2023-11-21T01:37:59;3.90;;;1.08;;
50976;SDS011;36992;48.200;12.418;2023-11-21T01:40:25;6.07;;;1.45;;
50976;SDS011;36992;48.200;12.418;2023-11-21T01:42:52;6.32;;;1.63;;
50976;SDS011;36992;48.200;12.418;2023-11-21T01:45:19;4.35;;;0.68;;
50976;SDS011;36992;48.200;12.418;2023-11-21T01:47:46;3.63;;;0.85;;
50976;SDS011;36992;48.200;12.418;2023-11-21T01:50:15;4.13;;;0.55;;
50976;SDS011;36992;48.200;12.418;2023-11-21T01:52:43;2.53;;;0.60;;
50976;SDS011;36992;48.200;12.418;2023-11-21T01:55:10;3.63;;;0.60;;
50976;SDS011;36992;48.200;12.418;2023-11-21T01:57:37;5.57;;;0.60;;
50976;SDS011;36992;48.200;12.418;2023-11-21T02:00:04;3.05;;;0.55;;
50976;SDS011;36992;48.200;12.418;2023-11-21T02:02:40;3.33;;;0.40;;
50976;SDS011;36992;48.200;12.418;2023-11-21T02:05:07;2.00;;;0.35;;
50976;SDS011;36992;48.200;12.418;2023-11-21T02:07:36;2.88;;;0.38;;
50976;SDS011;36992;48.200;12.418;2023-11-21T02:10:02;2.03;;;0.40;;
50976;SDS011;36992;48.200;12.418;2023-11-21T02:12:29;4.63;;;0.50;;
50976;SDS011;36992;48.200;12.418;2023-11-21T02:14:56;1.70;;;0.40;;
50976;SDS011;36992;48.200;12.418;2023-11-21T02:17:22;1.65;;;0.45;;
50976;SDS011;36992;48.200;12.418;2023-11-21T02:19:49;3.30;;;0.40;;
50976;SDS011;36992;48.200;12.418;2023-11-21T02:22:16;1.83;;;0.30;;
50976;SDS011;36992;48.200;12.418;2023-11-21T02:24:45;0.50;;;0.20;;
50976;SDS011;36992;48.200;12.418;2023-11-21T02:27:12;4.20;;;0.38;;
50976;SDS011;36992;48.200;12.418;2023-11-21T02:29:45;2.42;;;0.30;;
50976;SDS011;36992;48.200;12.418;2023-11-21T02:32:12;4.05;;;0.50;;
50976;SDS011;36992;48.200;12.418;2023-11-21T02:34:39;1.10;;;0.30;;
50976;SDS011;36992;48.200;12.418;2023-11-21T02:37:06;3.05;;;0.35;;
50976;SDS011;36992;48.200;12.418;2023-11-21T02:39:32;1.23;;;0.30;;
50976;SDS011;36992;48.200;12.418;2023-11-21T02:42:00;3.28;;;0.20;;
50976;SDS011;36992;48.200;12.418;2023-11-21T02:44:26;2.50;;;0.30;;
50976;SDS011;36992;48.200;12.418;2023-11-21T02:46:53;2.40;;;0.30;;
50976;SDS011;36992;48.200;12.418;2023-11-21T02:49:19;2.03;;;0.20;;
50976;SDS011;36992;48.200;12.418;2023-11-21T02:51:46;2.53;;;0.50;;
50976;SDS011;36992;48.200;12.418;2023-11-21T02:54:12;0.47;;;0.10;;
50976;SDS011;36992;48.200;12.418;2023-11-21T02:56:39;1.48;;;0.20;;
50976;SDS011;36992;48.200;12.418;2023-11-21T02:59:06;1.58;;;0.20;;
50976;SDS011;36992;48.200;12.418;2023-11-21T03:01:32;3.15;;;0.32;;
50976;SDS011;36992;48.200;12.418;2023-11-21T03:03:59;1.08;;;0.20;;
50976;SDS011;36992;48.200;12.418;2023-11-21T03:06:26;1.80;;;0.20;;
50976;SDS011;36992;48.200;12.418;2023-11-21T03:08:53;1.50;;;0.20;;
50976;SDS011;36992;48.200;12.418;2023-11-21T03:11:19;3.00;;;0.20;;
50976;SDS011;36992;48.200;12.418;2023-11-21T03:13:46;1.55;;;0.20;;
50976;SDS011;36992;48.200;12.418;2023-11-21T03:16:14;2.13;;;0.30;;
50976;SDS011;36992;48.200;12.418;2023-11-21T03:18:41;1.77;;;0.38;;
50976;SDS011;36992;48.200;12.418;2023-11-21T03:21:08;4.10;;;0.55;;
50976;SDS011;36992;48.200;12.418;2023-11-21T03:23:34;2.05;;;0.75;;
50976;SDS011;36992;48.200;12.418;2023-11-21T03:26:01;2.70;;;0.20;;
50976;SDS011;36992;48.200;12.418;2023-11-21T03:28:27;1.17;;;0.40;;
50976;SDS011;36992;48.200;12.418;2023-11-21T03:30:55;1.45;;;0.20;;
50976;SDS011;36992;48.200;12.418;2023-11-21T03:33:23;1.58;;;0.35;;
50976;SDS011;36992;48.200;12.418;2023-11-21T03:35:49;2.35;;;0.25;;
50976;SDS011;36992;48.200;12.418;2023-11-21T03:38:18;1.70;;;0.30;;
50976;SDS011;36992;48.200;12.418;2023-11-21T03:40:44;2.10;;;0.20;;
50976;SDS011;36992;48.200;12.418;2023-11-21T03:43:13;1.10;;;0.15;;
50976;SDS011;36992;48.200;12.418;2023-11-21T03:45:39;1.20;;;0.30;;
50976;SDS011;36992;48.200;12.418;2023-11-21T03:48:06;1.58;;;0.10;;
50976;SDS011;36992;48.200;12.418;2023-11-21T03:50:35;2.55;;;0.28;;
50976;SDS011;36992;48.200;12.418;2023-11-21T03:53:01;2.33;;;0.30;;
50976;SDS011;36992;48.200;12.418;2023-11-21T03:55:28;3.30;;;0.30;;
50976;SDS011;36992;48.200;12.418;2023-11-21T03:57:56;0.65;;;0.10;;
50976;SDS011;36992;48.200;12.418;2023-11-21T04:00:23;2.83;;;0.20;;
50976;SDS011;36992;48.200;12.418;2023-11-21T04:02:52;2.78;;;0.40;;
50976;SDS011;36992;48.200;12.418;2023-11-21T04:05:24;2.95;;;0.73;;
50976;SDS011;36992;48.200;12.418;2023-11-21T04:07:54;1.25;;;0.20;;
50976;SDS011;36992;48.200;12.418;2023-11-21T04:10:21;0.50;;;0.20;;
50976;SDS011;36992;48.200;12.418;2023-11-21T04:12:48;3.40;;;0.30;;
50976;SDS011;36992;48.200;12.418;2023-11-21T04:15:14;1.77;;;0.20;;
50976;SDS011;36992;48.200;12.418;2023-11-21T04:17:42;2.72;;;0.60;;
50976;SDS011;36992;48.200;12.418;2023-11-21T04:20:10;2.13;;;0.30;;
50976;SDS011;36992;48.200;12.418;2023-11-21T04:22:37;3.50;;;0.50;;
50976;SDS011;36992;48.200;12.418;2023-11-21T04:25:10;0.60;;;0.20;;
50976;SDS011;36992;48.200;12.418;2023-11-21T04:27:39;1.73;;;0.20;;
50976;SDS011;36992;48.200;12.418;2023-11-21T04:30:06;1.17;;;0.25;;
50976;SDS011;36992;48.200;12.418;2023-11-21T04:32:34;0.68;;;0.20;;
50976;SDS011;36992;48.200;12.418;2023-11-21T04:35:01;1.45;;;0.10;;
50976;SDS011;36992;48.200;12.418;2023-11-21T04:37:29;0.90;;;0.20;;
50976;SDS011;36992;48.200;12.418;2023-11-21T04:39:55;0.65;;;0.10;;
50976;SDS011;36992;48.200;12.418;2023-11-21T04:42:23;3.72;;;0.20;;
50976;SDS011;36992;48.200;12.418;2023-11-21T04:44:50;0.95;;;0.17;;
50976;SDS011;36992;48.200;12.418;2023-11-21T04:47:17;1.60;;;0.10;;
50976;SDS011;36992;48.200;12.418;2023-11-21T04:49:45;2.08;;;0.40;;
50976;SDS011;36992;48.200;12.418;2023-11-21T04:52:13;1.42;;;0.20;;
50976;SDS011;36992;48.200;12.418;2023-11-21T04:54:39;0.77;;;0.15;;
50976;SDS011;36992;48.200;12.418;2023-11-21T04:57:06;1.48;;;0.20;;
50976;SDS011;36992;48.200;12.418;2023-11-21T04:59:34;0.98;;;0.10;;
50976;SDS011;36992;48.200;12.418;2023-11-21T05:02:01;2.15;;;0.32;;
50976;SDS011;36992;48.200;12.418;2023-11-21T05:04:28;1.52;;;0.20;;
50976;SDS011;36992;48.200;12.418;2023-11-21T05:06:55;1.52;;;0.20;;
50976;SDS011;36992;48.200;12.418;2023-11-21T05:09:21;1.65;;;0.30;;
50976;SDS011;36992;48.200;12.418;2023-11-21T05:11:48;1.00;;;0.20;;
50976;SDS011;36992;48.200;12.418;2023-11-21T05:14:15;1.58;;;0.40;;
50976;SDS011;36992;48.200;12.418;2023-11-21T05:16:43;3.80;;;0.45;;
50976;SDS011;36992;48.200;12.418;2023-11-21T05:19:09;1.10;;;0.22;;
50976;SDS011;36992;48.200;12.418;2023-11-21T05:21:38;1.33;;;0.30;;
50976;SDS011;36992;48.200;12.418;2023-11-21T05:24:05;1.00;;;0.38;;
50976;SDS011;36992;48.200;12.418;2023-11-21T05:26:32;0.80;;;0.20;;
50976;SDS011;36992;48.200;12.418;2023-11-21T05:28:58;1.08;;;0.38;;
50976;SDS011;36992;48.200;12.418;2023-11-21T05:31:24;2.58;;;0.40;;
50976;SDS011;36992;48.200;12.418;2023-11-21T05:33:53;2.45;;;0.20;;
50976;SDS011;36992;48.200;12.418;2023-11-21T05:36:20;3.17;;;0.20;;
50976;SDS011;36992;48.200;12.418;2023-11-21T05:38:46;1.65;;;0.28;;
50976;SDS011;36992;48.200;12.418;2023-11-21T05:41:13;3.05;;;0.30;;
50976;SDS011;36992;48.200;12.418;2023-11-21T05:43:39;1.73;;;0.30;;
50976;SDS011;36992;48.200;12.418;2023-11-21T05:46:06;2.30;;;0.40;;
50976;SDS011;36992;48.200;12.418;2023-11-21T05:48:34;1.40;;;0.28;;
50976;SDS011;36992;48.200;12.418;2023-11-21T05:51:03;3.25;;;0.75;;
50976;SDS011;36992;48.200;12.418;2023-11-21T05:53:30;1.70;;;0.30;;
50976;SDS011;36992;48.200;12.418;2023-11-21T05:55:56;3.88;;;0.85;;
50976;SDS011;36992;48.200;12.418;2023-11-21T05:58:23;2.33;;;0.50;;
50976;SDS011;36992;48.200;12.418;2023-11-21T06:00:49;3.50;;;0.32;;
50976;SDS011;36992;48.200;12.418;2023-11-21T06:03:16;1.63;;;0.50;;
50976;SDS011;36992;48.200;12.418;2023-11-21T06:05:42;1.52;;;0.20;;
50976;SDS011;36992;48.200;12.418;2023-11-21T06:08:10;1.70;;;0.60;;
50976;SDS011;36992;48.200;12.418;2023-11-21T06:10:37;3.58;;;0.82;;
50976;SDS011;36992;48.200;12.418;2023-11-21T06:13:04;2.47;;;0.60;;
50976;SDS011;36992;48.200;12.418;2023-11-21T06:15:32;3.03;;;1.10;;
50976;SDS011;36992;48.200;12.418;2023-11-21T06:17:59;2.63;;;0.82;;
50976;SDS011;36992;48.200;12.418;2023-11-21T06:20:26;2.67;;;0.73;;
50976;SDS011;36992;48.200;12.418;2023-11-21T06:22:52;4.90;;;1.00;;
50976;SDS011;36992;48.200;12.418;2023-11-21T06:25:21;4.38;;;1.00;;
50976;SDS011;36992;48.200;12.418;2023-11-21T06:27:48;2.22;;;0.70;;
50976;SDS011;36992;48.200;12.418;2023-11-21T06:30:15;1.90;;;0.47;;
50976;SDS011;36992;48.200;12.418;2023-11-21T06:32:42;1.52;;;0.60;;
50976;SDS011;36992;48.200;12.418;2023-11-21T06:35:10;1.00;;;0.57;;
50976;SDS011;36992;48.200;12.418;2023-11-21T06:37:38;2.30;;;0.30;;
50976;SDS011;36992;48.200;12.418;2023-11-21T06:40:05;2.80;;;0.25;;
50976;SDS011;36992;48.200;12.418;2023-11-21T06:42:35;1.65;;;0.30;;
50976;SDS011;36992;48.200;12.418;2023-11-21T06:45:03;1.77;;;0.52;;
50976;SDS011;36992;48.200;12.418;2023-11-21T06:47:30;1.42;;;0.50;;
50976;SDS011;36992;48.200;12.418;2023-11-21T06:49:58;1.73;;;0.28;;
50976;SDS011;36992;48.200;12.418;2023-11-21T06:52:25;0.73;;;0.20;;
50976;SDS011;36992;48.200;12.418;2023-11-21T06:54:52;3.05;;;0.30;;
50976;SDS011;36992;48.200;12.418;2023-11-21T06:57:19;1.00;;;0.20;;
50976;SDS011;36992;48.200;12.418;2023-11-21T06:59:47;1.70;;;0.30;;
50976;SDS011;36992;48.200;12.418;2023-11-21T07:02:15;2.97;;;0.40;;
50976;SDS011;36992;48.200;12.418;2023-11-21T07:04:43;1.73;;;0.30;;
50976;SDS011;36992;48.200;12.418;2023-11-21T07:07:10;1.75;;;0.30;;
50976;SDS011;36992;48.200;12.418;2023-11-21T07:09:37;2.03;;;0.40;;
50976;SDS011;36992;48.200;12.418;2023-11-21T07:12:03;2.10;;;0.50;;
50976;SDS011;36992;48.200;12.418;2023-11-21T07:14:32;1.73;;;0.50;;
50976;SDS011;36992;48.200;12.418;2023-11-21T07:17:00;2.08;;;0.50;;
50976;SDS011;36992;48.200;12.418;2023-11-21T07:19:29;1.83;;;0.63;;
50976;SDS011;36992;48.200;12.418;2023-11-21T07:21:56;4.20;;;1.27;;
50976;SDS011;36992;48.200;12.418;2023-11-21T07:24:23;2.15;;;0.30;;
50976;SDS011;36992;48.200;12.418;2023-11-21T07:26:50;3.30;;;0.60;;
50976;SDS011;36992;48.200;12.418;2023-11-21T07:29:21;1.52;;;0.30;;
50976;SDS011;36992;48.200;12.418;2023-11-21T07:31:50;2.00;;;0.30;;
50976;SDS011;36992;48.200;12.418;2023-11-21T07:34:21;1.20;;;0.20;;
50976;SDS011;36992;48.200;12.418;2023-11-21T07:36:47;1.55;;;0.30;;
50976;SDS011;36992;48.200;12.418;2023-11-21T07:39:21;1.55;;;0.30;;
50976;SDS011;36992;48.200;12.418;2023-11-21T07:41:50;2.30;;;0.55;;
50976;SDS011;36992;48.200;12.418;2023-11-21T07:44:24;2.83;;;0.52;;
50976;SDS011;36992;48.200;12.418;2023-11-21T07:47:01;2.58;;;0.55;;
50976;SDS011;36992;48.200;12.418;2023-11-21T07:49:33;4.07;;;0.38;;
50976;SDS011;36992;48.200;12.418;2023-11-21T07:52:03;1.35;;;0.30;;
50976;SDS011;36992;48.200;12.418;2023-11-21T07:54:33;2.92;;;0.50;;
50976;SDS011;36992;48.200;12.418;2023-11-21T07:57:00;2.55;;;0.40;;
50976;SDS011;36992;48.200;12.418;2023-11-21T07:59:29;1.65;;;0.30;;
50976;SDS011;36992;48.200;12.418;2023-11-21T08:01:56;0.80;;;0.30;;
50976;SDS011;36992;48.200;12.418;2023-11-21T08:04:28;2.25;;;0.30;;
50976;SDS011;36992;48.200;12.418;2023-11-21T08:06:58;2.83;;;0.70;;
50976;SDS011;36992;48.200;12.418;2023-11-21T08:09:33;2.50;;;0.30;;
50976;SDS011;36992;48.200;12.418;2023-11-21T08:12:03;1.27;;;0.43;;
50976;SDS011;36992;48.200;12.418;2023-11-21T08:14:33;1.85;;;0.30;;
50976;SDS011;36992;48.200;12.418;2023-11-21T08:17:04;0.63;;;0.10;;
50976;SDS011;36992;48.200;12.418;2023-11-21T08:19:35;2.20;;;0.20;;
50976;SDS011;36992;48.200;12.418;2023-11-21T08:22:03;2.47;;;0.40;;
50976;SDS011;36992;48.200;12.418;2023-11-21T08:24:32;2.53;;;0.20;;
50976;SDS011;36992;48.200;12.418;2023-11-21T08:26:59;2.63;;;0.30;;
50976;SDS011;36992;48.200;12.418;2023-11-21T08:29:25;3.05;;;0.30;;
50976;SDS011;36992;48.200;12.418;2023-11-21T08:31:52;1.92;;;0.17;;
50976;SDS011;36992;48.200;12.418;2023-11-21T08:34:19;1.30;;;0.28;;
50976;SDS011;36992;48.200;12.418;2023-11-21T08:36:45;1.75;;;0.20;;
50976;SDS011;36992;48.200;12.418;2023-11-21T08:39:13;2.65;;;0.40;;
50976;SDS011;36992;48.200;12.418;2023-11-21T08:41:41;0.80;;;0.20;;
50976;SDS011;36992;48.200;12.418;2023-11-21T08:44:08;3.33;;;0.30;;
50976;SDS011;36992;48.200;12.418;2023-11-21T08:46:35;1.90;;;0.20;;
50976;SDS011;36992;48.200;12.418;2023-11-21T08:49:03;2.95;;;0.20;;
50976;SDS011;36992;48.200;12.418;2023-11-21T08:51:31;2.47;;;0.63;;
50976;SDS011;36992;48.200;12.418;2023-11-21T08:53:57;0.50;;;0.10;;
50976;SDS011;36992;48.200;12.418;2023-11-21T08:56:27;0.57;;;0.15;;
50976;SDS011;36992;48.200;12.418;2023-11-21T08:58:54;0.70;;;0.10;;
50976;SDS011;36992;48.200;12.418;2023-11-21T09:01:21;1.00;;;0.22;;
50976;SDS011;36992;48.200;12.418;2023-11-21T09:03:48;0.52;;;0.10;;
50976;SDS011;36992;48.200;12.418;2023-11-21T09:06:15;4.63;;;0.38;;
50976;SDS011;36992;48.200;12.418;2023-11-21T09:08:41;2.40;;;0.15;;
50976;SDS011;36992;48.200;12.418;2023-11-21T09:11:08;2.05;;;0.30;;
50976;SDS011;36992;48.200;12.418;2023-11-21T09:13:36;1.02;;;0.20;;
50976;SDS011;36992;48.200;12.418;2023-11-21T09:16:02;0.50;;;0.10;;
50976;SDS011;36992;48.200;12.418;2023-11-21T09:18:30;1.35;;;0.20;;
50976;SDS011;36992;48.200;12.418;2023-11-21T09:20:57;0.52;;;0.10;;
50976;SDS011;36992;48.200;12.418;2023-11-21T09:23:23;1.77;;;0.20;;
50976;SDS011;36992;48.200;12.418;2023-11-21T09:25:50;1.08;;;0.17;;
50976;SDS011;36992;48.200;12.418;2023-11-21T09:28:17;0.50;;;0.13;;
50976;SDS011;36992;48.200;12.418;2023-11-21T09:30:45;0.75;;;0.40;;
50976;SDS011;36992;48.200;12.418;2023-11-21T09:33:11;0.90;;;0.10;;
50976;SDS011;36992;48.200;12.418;2023-11-21T09:35:38;0.40;;;0.10;;
50976;SDS011;36992;48.200;12.418;2023-11-21T09:38:04;0.80;;;0.10;;
50976;SDS011;36992;48.200;12.418;2023-11-21T09:40:35;1.25;;;0.20;;
50976;SDS011;36992;48.200;12.418;2023-11-21T09:43:02;1.20;;;0.10;;
50976;SDS011;36992;48.200;12.418;2023-11-21T09:45:34;0.85;;;0.10;;
50976;SDS011;36992;48.200;12.418;2023-11-21T09:48:03;0.93;;;0.10;;
50976;SDS011;36992;48.200;12.418;2023-11-21T09:50:30;1.55;;;0.10;;
50976;SDS011;36992;48.200;12.418;2023-11-21T09:53:03;3.28;;;0.40;;
50976;SDS011;36992;48.200;12.418;2023-11-21T09:55:38;0.63;;;0.10;;
50976;SDS011;36992;48.200;12.418;2023-11-21T09:58:08;3.15;;;0.20;;
50976;SDS011;36992;48.200;12.418;2023-11-21T10:00:37;0.85;;;0.10;;
50976;SDS011;36992;48.200;12.418;2023-11-21T10:03:08;0.85;;;0.10;;
50976;SDS011;36992;48.200;12.418;2023-11-21T10:05:34;0.68;;;0.10;;
50976;SDS011;36992;48.200;12.418;2023-11-21T10:08:01;1.45;;;0.20;;
50976;SDS011;36992;48.200;12.418;2023-11-21T10:10:31;1.98;;;0.30;;
50976;SDS011;36992;48.200;12.418;2023-11-21T10:13:01;0.90;;;0.30;;
50976;SDS011;36992;48.200;12.418;2023-11-21T10:15:31;0.60;;;0.15;;
50976;SDS011;36992;48.200;12.418;2023-11-21T10:18:01;0.90;;;0.25;;
50976;SDS011;36992;48.200;12.418;2023-11-21T10:20:30;0.90;;;0.20;;
50976;SDS011;36992;48.200;12.418;2023-11-21T10:22:58;0.68;;;0.10;;
50976;SDS011;36992;48.200;12.418;2023-11-21T10:25:27;1.90;;;0.10;;
50976;SDS011;36992;48.200;12.418;2023-11-21T10:27:56;0.98;;;0.10;;
50976;SDS011;36992;48.200;12.418;2023-11-21T10:30:27;1.42;;;0.35;;
50976;SDS011;36992;48.200;12.418;2023-11-21T10:32:56;0.88;;;0.10;;
50976;SDS011;36992;48.200;12.418;2023-11-21T10:35:25;1.52;;;0.22;;
50976;SDS011;36992;48.200;12.418;2023-11-21T10:38:11;0.77;;;0.20;;
50976;SDS011;36992;48.200;12.418;2023-11-21T10:40:39;2.83;;;0.20;;
50976;SDS011;36992;48.200;12.418;2023-11-21T10:43:06;0.90;;;0.20;;
50976;SDS011;36992;48.200;12.418;2023-11-21T10:45:34;1.23;;;0.20;;
50976;SDS011;36992;48.200;12.418;2023-11-21T10:48:04;0.35;;;0.10;;
50976;SDS011;36992;48.200;12.418;2023-11-21T10:50:32;2.15;;;0.10;;
50976;SDS011;36992;48.200;12.418;2023-11-21T10:53:00;1.05;;;0.10;;
50976;SDS011;36992;48.200;12.418;2023-11-21T10:55:28;0.85;;;0.10;;
50976;SDS011;36992;48.200;12.418;2023-11-21T10:57:57;0.77;;;0.10;;
50976;SDS011;36992;48.200;12.418;2023-11-21T11:00:25;1.70;;;0.20;;
50976;SDS011;36992;48.200;12.418;2023-11-21T11:02:53;0.85;;;0.10;;
50976;SDS011;36992;48.200;12.418;2023-11-21T11:05:20;1.02;;;0.15;;
50976;SDS011;36992;48.200;12.418;2023-11-21T11:07:50;0.77;;;0.10;;
50976;SDS011;36992;48.200;12.418;2023-11-21T11:10:20;1.73;;;0.30;;
50976;SDS011;36992;48.200;12.418;2023-11-21T11:12:48;1.40;;;0.25;;
50976;SDS011;36992;48.200;12.418;2023-11-21T11:15:15;0.77;;;0.20;;
50976;SDS011;36992;48.200;12.418;2023-11-21T11:17:42;0.70;;;0.10;;
50976;SDS011;36992;48.200;12.418;2023-11-21T11:20:10;1.48;;;0.20;;
50976;SDS011;36992;48.200;12.418;2023-11-21T11:22:42;1.60;;;0.20;;
50976;SDS011;36992;48.200;12.418;2023-11-21T11:25:20;2.28;;;0.20;;
50976;SDS011;36992;48.200;12.418;2023-11-21T11:27:58;1.10;;;0.10;;
50976;SDS011;36992;48.200;12.418;2023-11-21T11:30:34;0.10;;;0.10;;
50976;SDS011;36992;48.200;12.418;2023-11-21T11:33:09;2.10;;;0.10;;
50976;SDS011;36992;48.200;12.418;2023-11-21T11:35:42;2.90;;;0.10;;
50976;SDS011;36992;48.200;12.418;2023-11-21T11:38:17;1.38;;;0.10;;
50976;SDS011;36992;48.200;12.418;2023-11-21T11:40:46;1.83;;;0.45;;
50976;SDS011;36992;48.200;12.418;2023-11-21T11:43:13;0.70;;;0.10;;
50976;SDS011;36992;48.200;12.418;2023-11-21T11:45:50;0.65;;;0.10;;
50976;SDS011;36992;48.200;12.418;2023-11-21T11:48:19;1.05;;;0.20;;
50976;SDS011;36992;48.200;12.418;2023-11-21T11:51:00;0.75;;;0.30;;
50976;SDS011;36992;48.200;12.418;2023-11-21T11:53:33;0.57;;;0.17;;
50976;SDS011;36992;48.200;12.418;2023-11-21T11:58:48;1.08;;;0.30;;
50976;SDS011;36992;48.200;12.418;2023-11-21T12:01:16;1.13;;;0.25;;
50976;SDS011;36992;48.200;12.418;2023-11-21T12:03:43;1.67;;;0.32;;
50976;SDS011;36992;48.200;12.418;2023-11-21T12:06:09;1.70;;;0.43;;
50976;SDS011;36992;48.200;12.418;2023-11-21T12:08:36;1.10;;;0.40;;
50976;SDS011;36992;48.200;12.418;2023-11-21T12:11:03;2.35;;;0.25;;
50976;SDS011;36992;48.200;12.418;2023-11-21T12:13:32;0.70;;;0.20;;
50976;SDS011;36992;48.200;12.418;2023-11-21T12:15:59;0.32;;;0.10;;
50976;SDS011;36992;48.200;12.418;2023-11-21T12:18:25;1.00;;;0.30;;
50976;SDS011;36992;48.200;12.418;2023-11-21T12:20:52;1.75;;;0.35;;
50976;SDS011;36992;48.200;12.418;2023-11-21T12:23:19;0.88;;;0.30;;
50976;SDS011;36992;48.200;12.418;2023-11-21T12:25:46;1.15;;;0.40;;
50976;SDS011;36992;48.200;12.418;2023-11-21T12:28:12;1.35;;;0.30;;
50976;SDS011;36992;48.200;12.418;2023-11-21T12:30:40;1.80;;;0.30;;
50976;SDS011;36992;48.200;12.418;2023-11-21T12:33:07;1.45;;;0.30;;
50976;SDS011;36992;48.200;12.418;2023-11-21T12:35:35;1.17;;;0.30;;
50976;SDS011;36992;48.200;12.418;2023-11-21T12:38:02;0.85;;;0.10;;
50976;SDS011;36992;48.200;12.418;2023-11-21T12:40:29;1.00;;;0.20;;
50976;SDS011;36992;48.200;12.418;2023-11-21T12:42:59;1.27;;;0.25;;
50976;SDS011;36992;48.200;12.418;2023-11-21T12:45:29;0.63;;;0.10;;
50976;SDS011;36992;48.200;12.418;2023-11-21T12:47:58;1.10;;;0.47;;
50976;SDS011;36992;48.200;12.418;2023-11-21T12:50:29;0.70;;;0.28;;
50976;SDS011;36992;48.200;12.418;2023-11-21T12:52:59;1.02;;;0.22;;
50976;SDS011;36992;48.200;12.418;2023-11-21T12:55:29;0.52;;;0.20;;
50976;SDS011;36992;48.200;12.418;2023-11-21T12:57:56;1.05;;;0.20;;
50976;SDS011;36992;48.200;12.418;2023-11-21T13:00:27;0.90;;;0.20;;
50976;SDS011;36992;48.200;12.418;2023-11-21T13:02:58;0.75;;;0.20;;
50976;SDS011;36992;48.200;12.418;2023-11-21T13:05:26;1.50;;;0.20;;
50976;SDS011;36992;48.200;12.418;2023-11-21T13:07:53;1.60;;;0.20;;
50976;SDS011;36992;48.200;12.418;2023-11-21T13:10:20;2.85;;;0.30;;
50976;SDS011;36992;48.200;12.418;2023-11-21T13:12:52;1.00;;;0.30;;
50976;SDS011;36992;48.200;12.418;2023-11-21T13:15:20;0.75;;;0.28;;
50976;SDS011;36992;48.200;12.418;2023-11-21T13:17:46;1.00;;;0.20;;
50976;SDS011;36992;48.200;12.418;2023-11-21T13:20:15;0.60;;;0.20;;
50976;SDS011;36992;48.200;12.418;2023-11-21T13:22:45;1.55;;;0.30;;
50976;SDS011;36992;48.200;12.418;2023-11-21T13:25:14;1.30;;;0.30;;
50976;SDS011;36992;48.200;12.418;2023-11-21T13:27:42;0.85;;;0.30;;
50976;SDS011;36992;48.200;12.418;2023-11-21T13:30:10;0.63;;;0.30;;
50976;SDS011;36992;48.200;12.418;2023-11-21T13:32:40;0.57;;;0.30;;
50976;SDS011;36992;48.200;12.418;2023-11-21T13:35:07;0.88;;;0.30;;
50976;SDS011;36992;48.200;12.418;2023-11-21T13:37:41;0.43;;;0.20;;
50976;SDS011;36992;48.200;12.418;2023-11-21T13:40:10;2.00;;;0.40;;
50976;SDS011;36992;48.200;12.418;2023-11-21T13:42:39;1.73;;;0.30;;
50976;SDS011;36992;48.200;12.418;2023-11-21T13:45:07;0.88;;;0.20;;
50976;SDS011;36992;48.200;12.418;2023-11-21T13:47:34;1.55;;;0.38;;
50976;SDS011;36992;48.200;12.418;2023-11-21T13:50:03;0.30;;;0.20;;
50976;SDS011;36992;48.200;12.418;2023-11-21T13:52:32;0.65;;;0.20;;
50976;SDS011;36992;48.200;12.418;2023-11-21T13:55:01;0.70;;;0.30;;
50976;SDS011;36992;48.200;12.418;2023-11-21T13:57:33;0.57;;;0.20;;
50976;SDS011;36992;48.200;12.418;2023-11-21T14:00:00;1.88;;;0.25;;
50976;SDS011;36992;48.200;12.418;2023-11-21T14:02:26;1.25;;;0.20;;
50976;SDS011;36992;48.200;12.418;2023-11-21T14:04:59;1.38;;;0.40;;
50976;SDS011;36992;48.200;12.418;2023-11-21T14:07:33;1.23;;;0.32;;
50976;SDS011;36992;48.200;12.418;2023-11-21T14:10:02;0.80;;;0.30;;
50976;SDS011;36992;48.200;12.418;2023-11-21T14:12:30;2.40;;;0.55;;
50976;SDS011;36992;48.200;12.418;2023-11-21T14:14:59;1.58;;;0.35;;
50976;SDS011;36992;48.200;12.418;2023-11-21T14:17:27;1.10;;;0.30;;
50976;SDS011;36992;48.200;12.418;2023-11-21T14:19:54;1.15;;;0.40;;
50976;SDS011;36992;48.200;12.418;2023-11-21T14:22:21;2.33;;;0.35;;
50976;SDS011;36992;48.200;12.418;2023-11-21T14:24:47;1.23;;;0.30;;
50976;SDS011;36992;48.200;12.418;2023-11-21T14:27:18;1.92;;;0.30;;
50976;SDS011;36992;48.200;12.418;2023-11-21T14:29:44;0.77;;;0.30;;
50976;SDS011;36992;48.200;12.418;2023-11-21T14:32:11;2.30;;;0.30;;
50976;SDS011;36992;48.200;12.418;2023-11-21T14:34:38;1.15;;;0.30;;
50976;SDS011;36992;48.200;12.418;2023-11-21T14:37:05;1.10;;;0.25;;
50976;SDS011;36992;48.200;12.418;2023-11-21T14:39:32;1.23;;;0.30;;
50976;SDS011;36992;48.200;12.418;2023-11-21T14:42:03;1.13;;;0.60;;